sensor_id;sensor_type;location;lat;lon;timestamp;P1;durP1;ratioP1;P2;durP2;ratioP2
7493;SDS011;3788;49.902;8.590;2023-04-29T00:00:43;3.27;;;2.97;;
7493;SDS011;3788;49.902;8.590;2023-04-29T00:03:09;4.10;;;2.67;;
7493;SDS011;3788;49.902;8.590;2023-04-29T00:05:36;3.50;;;3.17;;
7493;SDS011;3788;49.902;8.590;2023-04-29T00:08:03;4.07;;;3.43;;
7493;SDS011;3788;49.902;8.590;2023-04-29T00:10:30;4.23;;;3.33;;
7493;SDS011;3788;49.902;8.590;2023-04-29T00:12:58;4.03;;;3.63;;
7493;SDS011;3788;49.902;8.590;2023-04-29T00:15:25;5.53;;;3.80;;
7493;SDS011;3788;49.902;8.590;2023-04-29T00:17:52;4.37;;;3.83;;
7493;SDS011;3788;49.902;8.590;2023-04-29T00:20:18;4.20;;;3.30;;
7493;SDS011;3788;49.902;8.590;2023-04-29T00:22:45;3.53;;;3.20;;
7493;SDS011;3788;49.902;8.590;2023-04-29T00:25:12;4.10;;;3.70;;
7493;SDS011;3788;49.902;8.590;2023-04-29T00:27:39;3.50;;;3.20;;
7493;SDS011;3788;49.902;8.590;2023-04-29T00:30:07;4.20;;;3.50;;
7493;SDS011;3788;49.902;8.590;2023-04-29T00:32:35;4.10;;;3.70;;
7493;SDS011;3788;49.902;8.590;2023-04-29T00:35:02;4.10;;;3.17;;
7493;SDS011;3788;49.902;8.590;2023-04-29T00:37:28;4.10;;;3.70;;
7493;SDS011;3788;49.902;8.590;2023-04-29T00:39:55;4.57;;;3.57;;
7493;SDS011;3788;49.902;8.590;2023-04-29T00:42:21;5.80;;;4.23;;
7493;SDS011;3788;49.902;8.590;2023-04-29T00:44:49;4.70;;;3.60;;
7493;SDS011;3788;49.902;8.590;2023-04-29T00:47:18;3.20;;;2.90;;
7493;SDS011;3788;49.902;8.590;2023-04-29T00:49:45;4.03;;;3.60;;
7493;SDS011;3788;49.902;8.590;2023-04-29T00:52:12;4.93;;;4.37;;
7493;SDS011;3788;49.902;8.590;2023-04-29T00:54:39;3.40;;;3.10;;
7493;SDS011;3788;49.902;8.590;2023-04-29T00:57:06;3.37;;;3.07;;
7493;SDS011;3788;49.902;8.590;2023-04-29T00:59:33;2.80;;;2.60;;
7493;SDS011;3788;49.902;8.590;2023-04-29T01:02:01;3.93;;;2.50;;
7493;SDS011;3788;49.902;8.590;2023-04-29T01:04:30;3.20;;;2.90;;
7493;SDS011;3788;49.902;8.590;2023-04-29T01:06:57;3.20;;;2.90;;
7493;SDS011;3788;49.902;8.590;2023-04-29T01:09:34;4.53;;;3.80;;
7493;SDS011;3788;49.902;8.590;2023-04-29T01:12:19;4.17;;;3.77;;
7493;SDS011;3788;49.902;8.590;2023-04-29T01:14:51;4.47;;;3.43;;
7493;SDS011;3788;49.902;8.590;2023-04-29T01:17:25;3.17;;;2.73;;
7493;SDS011;3788;49.902;8.590;2023-04-29T01:19:57;3.17;;;2.87;;
7493;SDS011;3788;49.902;8.590;2023-04-29T01:22:25;2.70;;;2.50;;
7493;SDS011;3788;49.902;8.590;2023-04-29T01:24:55;2.90;;;2.70;;
7493;SDS011;3788;49.902;8.590;2023-04-29T01:27:24;2.80;;;2.60;;
7493;SDS011;3788;49.902;8.590;2023-04-29T01:29:56;2.90;;;2.70;;
7493;SDS011;3788;49.902;8.590;2023-04-29T01:32:31;3.00;;;2.70;;
7493;SDS011;3788;49.902;8.590;2023-04-29T01:35:09;2.53;;;2.33;;
7493;SDS011;3788;49.902;8.590;2023-04-29T01:37:45;2.80;;;2.30;;
7493;SDS011;3788;49.902;8.590;2023-04-29T01:40:21;2.40;;;2.30;;
7493;SDS011;3788;49.902;8.590;2023-04-29T01:42:54;2.50;;;2.30;;
7493;SDS011;3788;49.902;8.590;2023-04-29T01:45:25;2.87;;;2.33;;
7493;SDS011;3788;49.902;8.590;2023-04-29T01:47:53;2.53;;;2.33;;
7493;SDS011;3788;49.902;8.590;2023-04-29T01:50:20;2.43;;;2.27;;
7493;SDS011;3788;49.902;8.590;2023-04-29T01:52:47;2.30;;;2.10;;
7493;SDS011;3788;49.902;8.590;2023-04-29T01:55:14;3.10;;;2.63;;
7493;SDS011;3788;49.902;8.590;2023-04-29T01:57:43;2.57;;;2.37;;
7493;SDS011;3788;49.902;8.590;2023-04-29T02:00:10;2.77;;;2.57;;
7493;SDS011;3788;49.902;8.590;2023-04-29T02:02:37;2.80;;;2.60;;
7493;SDS011;3788;49.902;8.590;2023-04-29T02:05:04;2.30;;;2.10;;
7493;SDS011;3788;49.902;8.590;2023-04-29T02:07:31;2.43;;;2.23;;
7493;SDS011;3788;49.902;8.590;2023-04-29T02:09:58;2.57;;;2.37;;
7493;SDS011;3788;49.902;8.590;2023-04-29T02:12:25;2.50;;;2.30;;
7493;SDS011;3788;49.902;8.590;2023-04-29T02:14:53;2.70;;;2.50;;
7493;SDS011;3788;49.902;8.590;2023-04-29T02:17:19;2.63;;;2.43;;
7493;SDS011;3788;49.902;8.590;2023-04-29T02:19:46;2.47;;;2.27;;
7493;SDS011;3788;49.902;8.590;2023-04-29T02:22:13;2.87;;;2.67;;
7493;SDS011;3788;49.902;8.590;2023-04-29T02:24:39;2.63;;;2.43;;
7493;SDS011;3788;49.902;8.590;2023-04-29T02:27:06;3.10;;;2.90;;
7493;SDS011;3788;49.902;8.590;2023-04-29T02:29:32;2.47;;;2.27;;
7493;SDS011;3788;49.902;8.590;2023-04-29T02:32:00;2.50;;;2.30;;
7493;SDS011;3788;49.902;8.590;2023-04-29T02:34:27;2.50;;;2.30;;
7493;SDS011;3788;49.902;8.590;2023-04-29T02:36:55;2.33;;;2.23;;
7493;SDS011;3788;49.902;8.590;2023-04-29T02:39:22;2.03;;;1.93;;
7493;SDS011;3788;49.902;8.590;2023-04-29T02:41:49;2.70;;;2.50;;
7493;SDS011;3788;49.902;8.590;2023-04-29T02:44:19;2.50;;;2.30;;
7493;SDS011;3788;49.902;8.590;2023-04-29T02:46:45;2.20;;;2.10;;
7493;SDS011;3788;49.902;8.590;2023-04-29T02:49:13;2.83;;;2.63;;
7493;SDS011;3788;49.902;8.590;2023-04-29T02:51:40;2.43;;;2.27;;
7493;SDS011;3788;49.902;8.590;2023-04-29T02:54:07;3.17;;;2.97;;
7493;SDS011;3788;49.902;8.590;2023-04-29T02:56:33;2.00;;;1.90;;
7493;SDS011;3788;49.902;8.590;2023-04-29T02:59:00;2.53;;;2.17;;
7493;SDS011;3788;49.902;8.590;2023-04-29T03:01:27;2.50;;;2.37;;
7493;SDS011;3788;49.902;8.590;2023-04-29T03:03:54;2.57;;;2.37;;
7493;SDS011;3788;49.902;8.590;2023-04-29T03:06:22;2.53;;;2.33;;
7493;SDS011;3788;49.902;8.590;2023-04-29T03:08:48;2.40;;;2.20;;
7493;SDS011;3788;49.902;8.590;2023-04-29T03:11:16;2.83;;;2.63;;
7493;SDS011;3788;49.902;8.590;2023-04-29T03:13:43;2.77;;;2.57;;
7493;SDS011;3788;49.902;8.590;2023-04-29T03:16:10;2.73;;;2.53;;
7493;SDS011;3788;49.902;8.590;2023-04-29T03:18:38;3.17;;;2.90;;
7493;SDS011;3788;49.902;8.590;2023-04-29T03:21:05;2.90;;;2.70;;
7493;SDS011;3788;49.902;8.590;2023-04-29T03:23:33;2.60;;;2.47;;
7493;SDS011;3788;49.902;8.590;2023-04-29T03:25:59;2.33;;;2.13;;
7493;SDS011;3788;49.902;8.590;2023-04-29T03:28:27;2.40;;;2.20;;
7493;SDS011;3788;49.902;8.590;2023-04-29T03:30:53;3.13;;;2.70;;
7493;SDS011;3788;49.902;8.590;2023-04-29T03:33:20;3.27;;;2.97;;
7493;SDS011;3788;49.902;8.590;2023-04-29T03:35:47;3.10;;;2.90;;
7493;SDS011;3788;49.902;8.590;2023-04-29T03:38:13;3.20;;;2.93;;
7493;SDS011;3788;49.902;8.590;2023-04-29T03:40:42;2.67;;;2.47;;
7493;SDS011;3788;49.902;8.590;2023-04-29T03:43:09;3.00;;;2.80;;
7493;SDS011;3788;49.902;8.590;2023-04-29T03:45:37;3.03;;;2.83;;
7493;SDS011;3788;49.902;8.590;2023-04-29T03:48:04;3.40;;;3.20;;
7493;SDS011;3788;49.902;8.590;2023-04-29T03:50:31;3.17;;;2.97;;
7493;SDS011;3788;49.902;8.590;2023-04-29T03:52:58;3.20;;;2.90;;
7493;SDS011;3788;49.902;8.590;2023-04-29T03:55:25;2.87;;;2.67;;
7493;SDS011;3788;49.902;8.590;2023-04-29T03:57:53;2.57;;;2.37;;
7493;SDS011;3788;49.902;8.590;2023-04-29T04:00:20;2.60;;;2.40;;
7493;SDS011;3788;49.902;8.590;2023-04-29T04:02:46;2.90;;;2.70;;
7493;SDS011;3788;49.902;8.590;2023-04-29T04:05:13;2.90;;;2.70;;
7493;SDS011;3788;49.902;8.590;2023-04-29T04:07:39;3.97;;;2.70;;
7493;SDS011;3788;49.902;8.590;2023-04-29T04:10:06;2.73;;;2.50;;
7493;SDS011;3788;49.902;8.590;2023-04-29T04:12:33;2.47;;;2.27;;
7493;SDS011;3788;49.902;8.590;2023-04-29T04:15:01;1.97;;;1.87;;
7493;SDS011;3788;49.902;8.590;2023-04-29T04:17:28;2.40;;;2.20;;
7493;SDS011;3788;49.902;8.590;2023-04-29T04:19:55;1.90;;;1.80;;
7493;SDS011;3788;49.902;8.590;2023-04-29T04:22:22;2.07;;;1.97;;
7493;SDS011;3788;49.902;8.590;2023-04-29T04:24:49;2.77;;;2.20;;
7493;SDS011;3788;49.902;8.590;2023-04-29T04:27:15;2.03;;;1.83;;
7493;SDS011;3788;49.902;8.590;2023-04-29T04:29:42;2.00;;;1.90;;
7493;SDS011;3788;49.902;8.590;2023-04-29T04:32:10;2.00;;;1.90;;
7493;SDS011;3788;49.902;8.590;2023-04-29T04:34:36;2.00;;;1.90;;
7493;SDS011;3788;49.902;8.590;2023-04-29T04:37:04;2.13;;;2.03;;
7493;SDS011;3788;49.902;8.590;2023-04-29T04:39:31;2.00;;;1.80;;
7493;SDS011;3788;49.902;8.590;2023-04-29T04:41:58;2.70;;;2.50;;
7493;SDS011;3788;49.902;8.590;2023-04-29T04:44:27;1.90;;;1.80;;
7493;SDS011;3788;49.902;8.590;2023-04-29T04:46:54;1.70;;;1.60;;
7493;SDS011;3788;49.902;8.590;2023-04-29T04:49:23;1.70;;;1.60;;
7493;SDS011;3788;49.902;8.590;2023-04-29T04:51:49;3.17;;;2.00;;
7493;SDS011;3788;49.902;8.590;2023-04-29T04:54:16;1.83;;;1.73;;
7493;SDS011;3788;49.902;8.590;2023-04-29T04:56:43;2.00;;;1.90;;
7493;SDS011;3788;49.902;8.590;2023-04-29T04:59:10;1.50;;;1.40;;
7493;SDS011;3788;49.902;8.590;2023-04-29T05:01:36;1.63;;;1.53;;
7493;SDS011;3788;49.902;8.590;2023-04-29T05:04:03;1.77;;;1.67;;
7493;SDS011;3788;49.902;8.590;2023-04-29T05:06:31;1.33;;;1.30;;
7493;SDS011;3788;49.902;8.590;2023-04-29T05:08:58;2.00;;;1.90;;
7493;SDS011;3788;49.902;8.590;2023-04-29T05:11:24;1.47;;;1.43;;
7493;SDS011;3788;49.902;8.590;2023-04-29T05:13:51;2.10;;;1.90;;
7493;SDS011;3788;49.902;8.590;2023-04-29T05:16:18;1.90;;;1.80;;
7493;SDS011;3788;49.902;8.590;2023-04-29T05:18:44;2.30;;;2.10;;
7493;SDS011;3788;49.902;8.590;2023-04-29T05:21:11;2.03;;;1.93;;
7493;SDS011;3788;49.902;8.590;2023-04-29T05:23:39;2.03;;;1.93;;
7493;SDS011;3788;49.902;8.590;2023-04-29T05:26:07;2.37;;;2.20;;
7493;SDS011;3788;49.902;8.590;2023-04-29T05:28:34;2.77;;;2.57;;
7493;SDS011;3788;49.902;8.590;2023-04-29T05:31:00;2.80;;;2.50;;
7493;SDS011;3788;49.902;8.590;2023-04-29T05:33:27;2.60;;;2.40;;
7493;SDS011;3788;49.902;8.590;2023-04-29T05:35:53;2.97;;;2.77;;
7493;SDS011;3788;49.902;8.590;2023-04-29T05:38:20;3.10;;;2.50;;
7493;SDS011;3788;49.902;8.590;2023-04-29T05:40:54;3.93;;;3.53;;
7493;SDS011;3788;49.902;8.590;2023-04-29T05:43:20;4.40;;;4.00;;
7493;SDS011;3788;49.902;8.590;2023-04-29T05:45:47;6.57;;;5.33;;
7493;SDS011;3788;49.902;8.590;2023-04-29T05:48:14;7.10;;;6.40;;
7493;SDS011;3788;49.902;8.590;2023-04-29T05:50:40;7.10;;;6.40;;
7493;SDS011;3788;49.902;8.590;2023-04-29T05:53:07;6.77;;;5.70;;
7493;SDS011;3788;49.902;8.590;2023-04-29T05:55:35;6.60;;;5.90;;
7493;SDS011;3788;49.902;8.590;2023-04-29T05:58:03;5.73;;;5.00;;
7493;SDS011;3788;49.902;8.590;2023-04-29T06:00:29;5.93;;;5.03;;
7493;SDS011;3788;49.902;8.590;2023-04-29T06:02:56;5.50;;;5.00;;
7493;SDS011;3788;49.902;8.590;2023-04-29T06:05:23;6.17;;;5.60;;
7493;SDS011;3788;49.902;8.590;2023-04-29T06:07:50;6.23;;;5.00;;
7493;SDS011;3788;49.902;8.590;2023-04-29T06:10:16;7.73;;;5.67;;
7493;SDS011;3788;49.902;8.590;2023-04-29T06:12:43;9.43;;;6.83;;
7493;SDS011;3788;49.902;8.590;2023-04-29T06:15:12;7.40;;;5.97;;
7493;SDS011;3788;49.902;8.590;2023-04-29T06:17:38;6.70;;;6.00;;
7493;SDS011;3788;49.902;8.590;2023-04-29T06:20:05;8.30;;;6.00;;
7493;SDS011;3788;49.902;8.590;2023-04-29T06:22:33;7.30;;;5.93;;
7493;SDS011;3788;49.902;8.590;2023-04-29T06:25:00;6.90;;;6.10;;
7493;SDS011;3788;49.902;8.590;2023-04-29T06:27:27;7.70;;;6.17;;
7493;SDS011;3788;49.902;8.590;2023-04-29T06:29:53;7.20;;;6.40;;
7493;SDS011;3788;49.902;8.590;2023-04-29T06:32:21;7.03;;;5.50;;
7493;SDS011;3788;49.902;8.590;2023-04-29T06:34:48;7.07;;;5.90;;
7493;SDS011;3788;49.902;8.590;2023-04-29T06:37:15;6.93;;;6.10;;
7493;SDS011;3788;49.902;8.590;2023-04-29T06:39:42;7.87;;;5.27;;
7493;SDS011;3788;49.902;8.590;2023-04-29T06:42:08;5.37;;;4.87;;
7493;SDS011;3788;49.902;8.590;2023-04-29T06:44:35;5.60;;;4.70;;
7493;SDS011;3788;49.902;8.590;2023-04-29T06:47:03;6.07;;;5.47;;
7493;SDS011;3788;49.902;8.590;2023-04-29T06:49:30;6.13;;;5.10;;
7493;SDS011;3788;49.902;8.590;2023-04-29T06:51:57;5.30;;;4.80;;
7493;SDS011;3788;49.902;8.590;2023-04-29T06:54:26;7.33;;;6.07;;
7493;SDS011;3788;49.902;8.590;2023-04-29T06:56:52;6.07;;;4.73;;
7493;SDS011;3788;49.902;8.590;2023-04-29T06:59:19;7.03;;;5.27;;
7493;SDS011;3788;49.902;8.590;2023-04-29T07:01:46;5.90;;;4.97;;
7493;SDS011;3788;49.902;8.590;2023-04-29T07:04:12;7.13;;;5.17;;
7493;SDS011;3788;49.902;8.590;2023-04-29T07:06:40;5.20;;;4.50;;
7493;SDS011;3788;49.902;8.590;2023-04-29T07:09:10;5.10;;;4.03;;
7493;SDS011;3788;49.902;8.590;2023-04-29T07:11:37;5.50;;;4.67;;
7493;SDS011;3788;49.902;8.590;2023-04-29T07:14:04;5.80;;;3.87;;
7493;SDS011;3788;49.902;8.590;2023-04-29T07:16:31;3.90;;;3.50;;
7493;SDS011;3788;49.902;8.590;2023-04-29T07:18:58;5.73;;;4.47;;
7493;SDS011;3788;49.902;8.590;2023-04-29T07:21:25;3.50;;;3.10;;
7493;SDS011;3788;49.902;8.590;2023-04-29T07:23:53;4.43;;;4.03;;
7493;SDS011;3788;49.902;8.590;2023-04-29T07:26:20;4.10;;;3.33;;
7493;SDS011;3788;49.902;8.590;2023-04-29T07:28:47;3.63;;;3.17;;
7493;SDS011;3788;49.902;8.590;2023-04-29T07:31:14;3.53;;;3.20;;
7493;SDS011;3788;49.902;8.590;2023-04-29T07:33:41;3.63;;;2.93;;
7493;SDS011;3788;49.902;8.590;2023-04-29T07:36:09;4.07;;;3.13;;
7493;SDS011;3788;49.902;8.590;2023-04-29T07:38:36;3.73;;;3.33;;
7493;SDS011;3788;49.902;8.590;2023-04-29T07:41:04;4.17;;;3.60;;
7493;SDS011;3788;49.902;8.590;2023-04-29T07:43:31;4.13;;;3.73;;
7493;SDS011;3788;49.902;8.590;2023-04-29T07:45:57;3.87;;;3.40;;
7493;SDS011;3788;49.902;8.590;2023-04-29T07:48:24;4.33;;;3.37;;
7493;SDS011;3788;49.902;8.590;2023-04-29T07:50:51;3.80;;;3.40;;
7493;SDS011;3788;49.902;8.590;2023-04-29T07:53:18;4.50;;;3.77;;
7493;SDS011;3788;49.902;8.590;2023-04-29T07:55:45;3.60;;;3.27;;
7493;SDS011;3788;49.902;8.590;2023-04-29T07:58:13;3.93;;;3.50;;
7493;SDS011;3788;49.902;8.590;2023-04-29T08:00:40;3.90;;;3.00;;
7493;SDS011;3788;49.902;8.590;2023-04-29T08:03:07;3.07;;;2.77;;
7493;SDS011;3788;49.902;8.590;2023-04-29T08:05:34;3.27;;;2.73;;
7493;SDS011;3788;49.902;8.590;2023-04-29T08:08:00;2.67;;;2.47;;
7493;SDS011;3788;49.902;8.590;2023-04-29T08:10:27;2.60;;;2.40;;
7493;SDS011;3788;49.902;8.590;2023-04-29T08:12:54;2.93;;;2.63;;
7493;SDS011;3788;49.902;8.590;2023-04-29T08:15:23;2.40;;;2.20;;
7493;SDS011;3788;49.902;8.590;2023-04-29T08:17:49;2.53;;;2.33;;
7493;SDS011;3788;49.902;8.590;2023-04-29T08:20:16;2.80;;;2.60;;
7493;SDS011;3788;49.902;8.590;2023-04-29T08:22:43;2.80;;;2.50;;
7493;SDS011;3788;49.902;8.590;2023-04-29T08:25:10;3.83;;;3.03;;
7493;SDS011;3788;49.902;8.590;2023-04-29T08:27:36;2.67;;;2.47;;
7493;SDS011;3788;49.902;8.590;2023-04-29T08:30:03;3.07;;;2.77;;
7493;SDS011;3788;49.902;8.590;2023-04-29T08:32:32;2.70;;;2.50;;
7493;SDS011;3788;49.902;8.590;2023-04-29T08:34:59;3.13;;;2.83;;
7493;SDS011;3788;49.902;8.590;2023-04-29T08:37:27;3.23;;;2.93;;
7493;SDS011;3788;49.902;8.590;2023-04-29T08:39:53;2.63;;;2.40;;
7493;SDS011;3788;49.902;8.590;2023-04-29T08:42:32;3.00;;;2.70;;
7493;SDS011;3788;49.902;8.590;2023-04-29T08:45:01;3.13;;;2.83;;
7493;SDS011;3788;49.902;8.590;2023-04-29T08:47:28;3.73;;;3.37;;
7493;SDS011;3788;49.902;8.590;2023-04-29T08:49:58;3.60;;;3.30;;
7493;SDS011;3788;49.902;8.590;2023-04-29T08:52:28;3.63;;;3.33;;
7493;SDS011;3788;49.902;8.590;2023-04-29T08:54:54;2.63;;;2.43;;
7493;SDS011;3788;49.902;8.590;2023-04-29T08:57:21;3.37;;;3.03;;
7493;SDS011;3788;49.902;8.590;2023-04-29T08:59:49;4.03;;;3.67;;
7493;SDS011;3788;49.902;8.590;2023-04-29T09:02:17;4.20;;;2.90;;
7493;SDS011;3788;49.902;8.590;2023-04-29T09:04:46;4.07;;;3.50;;
7493;SDS011;3788;49.902;8.590;2023-04-29T09:07:16;4.47;;;3.70;;
7493;SDS011;3788;49.902;8.590;2023-04-29T09:09:43;4.57;;;3.63;;
7493;SDS011;3788;49.902;8.590;2023-04-29T09:12:10;3.13;;;2.93;;
7493;SDS011;3788;49.902;8.590;2023-04-29T09:14:36;3.20;;;2.90;;
7493;SDS011;3788;49.902;8.590;2023-04-29T09:17:03;3.37;;;3.00;;
7493;SDS011;3788;49.902;8.590;2023-04-29T09:19:30;3.80;;;3.40;;
7493;SDS011;3788;49.902;8.590;2023-04-29T09:21:58;4.17;;;3.70;;
7493;SDS011;3788;49.902;8.590;2023-04-29T09:24:27;3.73;;;3.23;;
7493;SDS011;3788;49.902;8.590;2023-04-29T09:26:55;3.90;;;3.50;;
7493;SDS011;3788;49.902;8.590;2023-04-29T09:29:23;3.80;;;3.50;;
7493;SDS011;3788;49.902;8.590;2023-04-29T09:31:50;4.80;;;3.97;;
7493;SDS011;3788;49.902;8.590;2023-04-29T09:34:21;3.50;;;3.10;;
7493;SDS011;3788;49.902;8.590;2023-04-29T09:36:56;3.50;;;3.20;;
7493;SDS011;3788;49.902;8.590;2023-04-29T09:39:23;3.40;;;3.10;;
7493;SDS011;3788;49.902;8.590;2023-04-29T09:41:59;3.80;;;3.10;;
7493;SDS011;3788;49.902;8.590;2023-04-29T09:44:27;4.93;;;3.33;;
7493;SDS011;3788;49.902;8.590;2023-04-29T09:46:55;3.37;;;3.07;;
7493;SDS011;3788;49.902;8.590;2023-04-29T09:49:24;3.40;;;3.10;;
7493;SDS011;3788;49.902;8.590;2023-04-29T09:51:52;3.33;;;2.97;;
7493;SDS011;3788;49.902;8.590;2023-04-29T09:54:20;4.27;;;3.10;;
7493;SDS011;3788;49.902;8.590;2023-04-29T09:56:48;2.60;;;2.33;;
7493;SDS011;3788;49.902;8.590;2023-04-29T09:59:17;3.30;;;2.90;;
7493;SDS011;3788;49.902;8.590;2023-04-29T10:01:45;3.50;;;3.20;;
7493;SDS011;3788;49.902;8.590;2023-04-29T10:04:14;3.70;;;3.20;;
7493;SDS011;3788;49.902;8.590;2023-04-29T10:06:42;3.93;;;3.50;;
7493;SDS011;3788;49.902;8.590;2023-04-29T10:09:12;3.90;;;3.33;;
7493;SDS011;3788;49.902;8.590;2023-04-29T10:11:43;3.53;;;3.23;;
7493;SDS011;3788;49.902;8.590;2023-04-29T10:14:11;3.00;;;2.70;;
7493;SDS011;3788;49.902;8.590;2023-04-29T10:16:44;3.27;;;2.97;;
7493;SDS011;3788;49.902;8.590;2023-04-29T10:19:14;3.33;;;2.97;;
7493;SDS011;3788;49.902;8.590;2023-04-29T10:21:44;2.70;;;2.50;;
7493;SDS011;3788;49.902;8.590;2023-04-29T10:24:13;3.63;;;2.50;;
7493;SDS011;3788;49.902;8.590;2023-04-29T10:26:42;2.83;;;2.40;;
7493;SDS011;3788;49.902;8.590;2023-04-29T10:29:09;4.73;;;2.67;;
7493;SDS011;3788;49.902;8.590;2023-04-29T10:31:38;2.73;;;2.53;;
7493;SDS011;3788;49.902;8.590;2023-04-29T10:34:07;2.87;;;2.67;;
7493;SDS011;3788;49.902;8.590;2023-04-29T10:36:34;2.67;;;2.43;;
7493;SDS011;3788;49.902;8.590;2023-04-29T10:39:02;2.53;;;2.33;;
7493;SDS011;3788;49.902;8.590;2023-04-29T10:41:33;3.17;;;2.83;;
7493;SDS011;3788;49.902;8.590;2023-04-29T10:44:02;3.17;;;2.93;;
7493;SDS011;3788;49.902;8.590;2023-04-29T10:46:29;3.23;;;2.70;;
7493;SDS011;3788;49.902;8.590;2023-04-29T10:48:57;3.93;;;2.87;;
7493;SDS011;3788;49.902;8.590;2023-04-29T10:51:28;3.07;;;2.87;;
7493;SDS011;3788;49.902;8.590;2023-04-29T10:53:57;4.83;;;3.80;;
7493;SDS011;3788;49.902;8.590;2023-04-29T10:56:34;4.77;;;3.90;;
7493;SDS011;3788;49.902;8.590;2023-04-29T10:59:02;4.60;;;4.03;;
7493;SDS011;3788;49.902;8.590;2023-04-29T11:01:39;4.43;;;4.03;;
7493;SDS011;3788;49.902;8.590;2023-04-29T11:04:10;5.63;;;4.27;;
7493;SDS011;3788;49.902;8.590;2023-04-29T11:06:39;4.63;;;3.40;;
7493;SDS011;3788;49.902;8.590;2023-04-29T11:09:09;4.97;;;3.80;;
7493;SDS011;3788;49.902;8.590;2023-04-29T11:11:41;4.43;;;4.03;;
7493;SDS011;3788;49.902;8.590;2023-04-29T11:14:08;4.67;;;3.70;;
7493;SDS011;3788;49.902;8.590;2023-04-29T11:16:36;3.53;;;3.23;;
7493;SDS011;3788;49.902;8.590;2023-04-29T11:19:04;3.90;;;3.50;;
7493;SDS011;3788;49.902;8.590;2023-04-29T11:21:32;4.23;;;3.83;;
7493;SDS011;3788;49.902;8.590;2023-04-29T11:24:01;3.93;;;3.53;;
7493;SDS011;3788;49.902;8.590;2023-04-29T11:26:30;4.60;;;4.00;;
7493;SDS011;3788;49.902;8.590;2023-04-29T11:28:57;3.90;;;3.27;;
7493;SDS011;3788;49.902;8.590;2023-04-29T11:31:25;4.00;;;3.60;;
7493;SDS011;3788;49.902;8.590;2023-04-29T11:33:53;3.80;;;3.50;;
7493;SDS011;3788;49.902;8.590;2023-04-29T11:36:20;3.70;;;3.30;;
7493;SDS011;3788;49.902;8.590;2023-04-29T11:38:47;3.73;;;3.27;;
7493;SDS011;3788;49.902;8.590;2023-04-29T11:41:15;3.60;;;3.30;;
7493;SDS011;3788;49.902;8.590;2023-04-29T11:43:44;4.70;;;3.40;;
7493;SDS011;3788;49.902;8.590;2023-04-29T11:46:11;3.23;;;2.70;;
7493;SDS011;3788;49.902;8.590;2023-04-29T11:48:44;3.37;;;3.07;;
7493;SDS011;3788;49.902;8.590;2023-04-29T11:51:12;3.20;;;2.90;;
7493;SDS011;3788;49.902;8.590;2023-04-29T11:53:40;3.40;;;3.10;;
7493;SDS011;3788;49.902;8.590;2023-04-29T11:56:07;3.80;;;3.47;;
7493;SDS011;3788;49.902;8.590;2023-04-29T11:58:36;4.80;;;2.80;;
7493;SDS011;3788;49.902;8.590;2023-04-29T12:01:03;4.00;;;3.60;;
7493;SDS011;3788;49.902;8.590;2023-04-29T12:03:30;3.50;;;3.20;;
7493;SDS011;3788;49.902;8.590;2023-04-29T12:05:58;4.73;;;4.33;;
7493;SDS011;3788;49.902;8.590;2023-04-29T12:08:27;5.30;;;4.80;;
7493;SDS011;3788;49.902;8.590;2023-04-29T12:10:55;6.27;;;5.20;;
7493;SDS011;3788;49.902;8.590;2023-04-29T12:13:23;5.05;;;4.55;;
7493;SDS011;3788;49.902;8.590;2023-04-29T12:15:53;4.03;;;3.73;;
7493;SDS011;3788;49.902;8.590;2023-04-29T12:18:21;3.43;;;3.10;;
7493;SDS011;3788;49.902;8.590;2023-04-29T12:20:48;2.97;;;2.77;;
7493;SDS011;3788;49.902;8.590;2023-04-29T12:23:16;3.33;;;3.03;;
7493;SDS011;3788;49.902;8.590;2023-04-29T12:25:47;3.27;;;2.97;;
7493;SDS011;3788;49.902;8.590;2023-04-29T12:28:15;3.00;;;2.50;;
7493;SDS011;3788;49.902;8.590;2023-04-29T12:30:42;3.40;;;3.10;;
7493;SDS011;3788;49.902;8.590;2023-04-29T12:33:11;3.83;;;3.47;;
7493;SDS011;3788;49.902;8.590;2023-04-29T12:35:43;2.87;;;2.67;;
7493;SDS011;3788;49.902;8.590;2023-04-29T12:38:09;3.97;;;3.63;;
7493;SDS011;3788;49.902;8.590;2023-04-29T12:40:38;5.00;;;3.47;;
7493;SDS011;3788;49.902;8.590;2023-04-29T12:43:09;4.13;;;3.63;;
7493;SDS011;3788;49.902;8.590;2023-04-29T12:45:37;4.57;;;3.65;;
7493;SDS011;3788;49.902;8.590;2023-04-29T12:48:04;3.50;;;3.20;;
7493;SDS011;3788;49.902;8.590;2023-04-29T12:50:33;3.13;;;2.83;;
7493;SDS011;3788;49.902;8.590;2023-04-29T12:53:01;3.20;;;2.90;;
7493;SDS011;3788;49.902;8.590;2023-04-29T12:55:30;2.50;;;2.30;;
7493;SDS011;3788;49.902;8.590;2023-04-29T12:57:58;2.63;;;2.37;;
7493;SDS011;3788;49.902;8.590;2023-04-29T13:00:25;2.50;;;2.30;;
7493;SDS011;3788;49.902;8.590;2023-04-29T13:02:51;2.53;;;2.33;;
7493;SDS011;3788;49.902;8.590;2023-04-29T13:05:18;1.90;;;1.80;;
7493;SDS011;3788;49.902;8.590;2023-04-29T13:07:47;2.40;;;2.20;;
7493;SDS011;3788;49.902;8.590;2023-04-29T13:10:14;2.30;;;2.07;;
7493;SDS011;3788;49.902;8.590;2023-04-29T13:12:41;2.63;;;2.30;;
7493;SDS011;3788;49.902;8.590;2023-04-29T13:15:08;2.57;;;2.23;;
7493;SDS011;3788;49.902;8.590;2023-04-29T13:17:35;2.50;;;2.30;;
7493;SDS011;3788;49.902;8.590;2023-04-29T13:20:02;2.60;;;2.40;;
7493;SDS011;3788;49.902;8.590;2023-04-29T13:22:30;2.23;;;2.03;;
7493;SDS011;3788;49.902;8.590;2023-04-29T13:24:59;2.43;;;2.23;;
7493;SDS011;3788;49.902;8.590;2023-04-29T13:27:25;2.03;;;1.80;;
7493;SDS011;3788;49.902;8.590;2023-04-29T13:29:52;2.27;;;2.03;;
7493;SDS011;3788;49.902;8.590;2023-04-29T13:32:20;2.37;;;2.17;;
7493;SDS011;3788;49.902;8.590;2023-04-29T13:34:47;2.50;;;2.30;;
7493;SDS011;3788;49.902;8.590;2023-04-29T13:37:14;2.40;;;2.20;;
7493;SDS011;3788;49.902;8.590;2023-04-29T13:39:41;1.90;;;1.80;;
7493;SDS011;3788;49.902;8.590;2023-04-29T13:42:09;2.90;;;2.37;;
7493;SDS011;3788;49.902;8.590;2023-04-29T13:44:36;2.60;;;2.30;;
7493;SDS011;3788;49.902;8.590;2023-04-29T13:47:03;2.90;;;2.70;;
7493;SDS011;3788;49.902;8.590;2023-04-29T13:49:30;2.70;;;2.50;;
7493;SDS011;3788;49.902;8.590;2023-04-29T13:52:00;2.20;;;2.10;;
7493;SDS011;3788;49.902;8.590;2023-04-29T13:54:26;3.30;;;2.30;;
7493;SDS011;3788;49.902;8.590;2023-04-29T13:56:53;2.67;;;2.47;;
7493;SDS011;3788;49.902;8.590;2023-04-29T13:59:21;2.77;;;2.47;;
7493;SDS011;3788;49.902;8.590;2023-04-29T14:01:48;2.30;;;2.03;;
7493;SDS011;3788;49.902;8.590;2023-04-29T14:04:15;3.63;;;2.43;;
7493;SDS011;3788;49.902;8.590;2023-04-29T14:06:41;2.77;;;2.23;;
7493;SDS011;3788;49.902;8.590;2023-04-29T14:09:08;2.53;;;2.33;;
7493;SDS011;3788;49.902;8.590;2023-04-29T14:11:35;2.30;;;2.10;;
7493;SDS011;3788;49.902;8.590;2023-04-29T14:14:02;2.27;;;2.07;;
7493;SDS011;3788;49.902;8.590;2023-04-29T14:16:30;2.63;;;2.00;;
7493;SDS011;3788;49.902;8.590;2023-04-29T14:18:57;2.13;;;1.90;;
7493;SDS011;3788;49.902;8.590;2023-04-29T14:21:23;2.37;;;2.17;;
7493;SDS011;3788;49.902;8.590;2023-04-29T14:23:50;2.07;;;1.97;;
7493;SDS011;3788;49.902;8.590;2023-04-29T14:26:17;3.50;;;2.37;;
7493;SDS011;3788;49.902;8.590;2023-04-29T14:28:44;2.30;;;2.10;;
7493;SDS011;3788;49.902;8.590;2023-04-29T14:31:10;3.03;;;2.10;;
7493;SDS011;3788;49.902;8.590;2023-04-29T14:33:40;2.57;;;2.37;;
7493;SDS011;3788;49.902;8.590;2023-04-29T14:36:08;2.10;;;1.90;;
7493;SDS011;3788;49.902;8.590;2023-04-29T14:38:35;2.30;;;2.10;;
7493;SDS011;3788;49.902;8.590;2023-04-29T14:41:01;2.20;;;1.77;;
7493;SDS011;3788;49.902;8.590;2023-04-29T14:43:28;2.07;;;1.90;;
7493;SDS011;3788;49.902;8.590;2023-04-29T14:45:55;2.00;;;1.90;;
7493;SDS011;3788;49.902;8.590;2023-04-29T14:48:22;2.17;;;1.97;;
7493;SDS011;3788;49.902;8.590;2023-04-29T14:50:50;2.13;;;1.90;;
7493;SDS011;3788;49.902;8.590;2023-04-29T14:53:16;3.23;;;2.70;;
7493;SDS011;3788;49.902;8.590;2023-04-29T14:55:45;2.33;;;2.13;;
7493;SDS011;3788;49.902;8.590;2023-04-29T14:58:12;2.40;;;2.20;;
7493;SDS011;3788;49.902;8.590;2023-04-29T15:00:39;2.20;;;2.10;;
7493;SDS011;3788;49.902;8.590;2023-04-29T15:03:05;2.20;;;2.00;;
7493;SDS011;3788;49.902;8.590;2023-04-29T15:05:32;1.70;;;1.60;;
7493;SDS011;3788;49.902;8.590;2023-04-29T15:08:01;1.70;;;1.60;;
7493;SDS011;3788;49.902;8.590;2023-04-29T15:10:28;2.23;;;2.03;;
7493;SDS011;3788;49.902;8.590;2023-04-29T15:12:54;2.67;;;2.47;;
7493;SDS011;3788;49.902;8.590;2023-04-29T15:15:21;2.70;;;2.37;;
7493;SDS011;3788;49.902;8.590;2023-04-29T15:17:48;1.90;;;1.70;;